This is the latest recevied weather packets stored in our database for station/object VE3TEJ. If no packets are shown the sender has not sent any weather packets the latest 10 day(s).
| Time | Temp. | Humidity | Pressure | Rain* | Wind** | Luminosity | Snow |
|---|---|---|---|---|---|---|---|
| 1787848656 | 22.78° C | 68% | 1018.8 hPa | 0 mm | - | - | - |
| 1787848355 | 22.78° C | 68% | 1018.8 hPa | 0 mm | - | - | - |
| 1787848055 | 24.44° C | 66% | 1018.9 hPa | 0 mm | - | - | - |
| 1787847757 | 23.89° C | 66% | 1018.7 hPa | 0 mm | - | - | - |
| 1787847456 | 23.33° C | 67% | 1018.8 hPa | 0 mm | - | - | - |
| 1787847156 | 23.33° C | 67% | 1018.6 hPa | 0 mm | - | - | - |
| 1787846856 | 23.33° C | 69% | 1018.7 hPa | 0 mm | - | - | - |
| 1787846556 | 24.44° C | 65% | 1018.6 hPa | 0 mm | - | - | - |
| 1787846255 | 23.89° C | 65% | 1018.6 hPa | 0 mm | - | - | - |
| 1787845955 | 23.33° C | 67% | 1018.5 hPa | 0 mm | - | - | - |
| 1787845657 | 22.78° C | 70% | 1018.6 hPa | 0 mm | - | - | - |
| 1787845356 | 22.78° C | 70% | 1018.8 hPa | 0 mm | - | - | - |
| 1787845056 | 23.33° C | 68% | 1018.6 hPa | 0 mm | - | - | - |
| 1787844756 | 23.89° C | 66% | 1018.5 hPa | 0 mm | - | - | - |
| 1787844455 | 23.33° C | 70% | 1018.5 hPa | 0 mm | - | - | - |
| 1787844155 | 22.78° C | 70% | 1018.4 hPa | 0 mm | - | - | - |
| 1787843855 | 22.22° C | 72% | 1018.4 hPa | 0 mm | - | - | - |
| 1787843556 | 23.33° C | 69% | 1018.4 hPa | 0 mm | - | - | - |
| 1787843256 | 23.33° C | 68% | 1018.4 hPa | 0 mm | - | - | - |
| 1787842956 | 22.78° C | 70% | 1018.2 hPa | 0 mm | - | - | - |
| 1787842656 | 22.78° C | 71% | 1018.4 hPa | 0 mm | - | - | - |
| 1787842355 | 22.22° C | 73% | 1018.4 hPa | 0 mm | - | - | - |
| 1787842055 | 22.78° C | 71% | 1018 hPa | 0 mm | - | - | - |
| 1787841757 | 22.22° C | 72% | 1018.2 hPa | 0 mm | - | - | - |
| 1787841457 | 22.22° C | 72% | 1018.3 hPa | 0 mm | - | - | - |
* Rain latest hour (hover to see other rain measurements)
** Current wind speed in m/s (hover to see current wind gust speed)